Time;durP1;ratioP1;P1;durP2;ratioP2;P2;SDS_P1;SDS_P2;PMS_P1;PMS_P2;Temp;Humidity;BMP_temperature;BMP_pressure;BME280_temperature;BME280_humidity;BME280_pressure;Samples;Min_cycle;Max_cycle;Signal;HPM_P1;HPM_P2
2023/03/21 00:04:23;;;;;;;6.63;4.93;;;;;;;15.25;39.77;99882.44;10490775;28;20238;-38
2023/03/21 00:09:25;;;;;;;8.97;6.17;;;;;;;15.29;40.17;99881.00;10484989;28;20311;-38
2023/03/21 00:14:29;;;;;;;10.10;6.13;;;;;;;15.76;40.09;99880.78;10491220;28;20335;-39
2023/03/21 00:19:31;;;;;;;9.53;5.30;;;;;;;16.10;39.90;99857.13;10488933;28;20203;-38
2023/03/21 00:24:34;;;;;;;5.80;4.53;;;;;;;16.27;38.16;99843.94;10491717;28;20236;-38
2023/03/21 00:29:36;;;;;;;7.43;4.60;;;;;;;15.14;39.80;99851.59;10492395;28;20672;-38
2023/03/21 00:34:38;;;;;;;7.17;5.80;;;;;;;14.78;40.77;99877.97;10495102;28;20223;-38
2023/03/21 00:39:55;;;;;;;8.53;5.37;;;;;;;15.69;40.09;99849.28;10488890;28;20301;-38
2023/03/21 00:44:57;;;;;;;8.10;5.00;;;;;;;15.02;39.77;99851.44;10478550;28;20305;-38
2023/03/21 00:49:58;;;;;;;6.47;4.43;;;;;;;15.16;39.56;99851.38;10484734;28;20230;-38
2023/03/21 00:55:00;;;;;;;6.73;4.93;;;;;;;15.06;39.44;99855.34;10494785;28;20671;-38
2023/03/21 01:00:06;;;;;;;6.97;5.70;;;;;;;15.29;39.64;99859.41;10491053;28;20213;-38
2023/03/21 01:05:10;;;;;;;7.83;5.03;;;;;;;15.39;39.23;99816.66;10505642;28;20245;-38
2023/03/21 01:10:12;;;;;;;9.10;4.87;;;;;;;14.75;40.14;99850.66;10496840;28;20522;-39
2023/03/21 01:15:14;;;;;;;6.60;4.93;;;;;;;14.49;41.28;99846.97;10480986;28;20214;-38
2023/03/21 01:20:16;;;;;;;7.17;5.03;;;;;;;14.58;41.01;99844.88;10489205;28;20217;-38
2023/03/21 01:25:18;;;;;;;6.87;5.20;;;;;;;14.51;41.33;99844.88;10469208;28;20224;-38
2023/03/21 01:30:23;;;;;;;8.70;5.80;;;;;;;14.84;41.90;99832.41;10478649;28;20681;-38
2023/03/21 01:35:27;;;;;;;8.57;5.93;;;;;;;14.63;41.72;99811.91;10487994;28;20210;-38
2023/03/21 01:40:32;;;;;;;8.23;5.40;;;;;;;15.14;40.41;99805.78;10488133;28;20231;-38
2023/03/21 01:46:08;;;;;;;5.87;4.83;;;;;;;13.52;42.89;99781.91;10473543;28;20236;-39
2023/03/21 01:51:12;;;;;;;7.93;5.53;;;;;;;14.50;42.04;99826.25;10484020;28;20252;-38
2023/03/21 01:56:37;;;;;;;8.60;5.33;;;;;;;14.23;41.38;99809.31;10480582;28;20211;-38
2023/03/21 02:01:41;;;;;;;7.63;6.13;;;;;;;14.74;40.36;99808.56;10475888;28;20356;-38
2023/03/21 02:06:53;;;;;;;7.07;6.00;;;;;;;14.69;40.88;99811.06;10488873;28;20246;-38
2023/03/21 02:11:55;;;;;;;9.80;7.40;;;;;;;13.84;41.49;99795.59;10477768;28;20237;-38
2023/03/21 02:17:04;;;;;;;19.53;12.03;;;;;;;14.35;41.03;99813.81;10479861;28;20195;-38
2023/03/21 02:22:27;;;;;;;10.63;6.87;;;;;;;11.98;43.94;99743.53;10475282;28;20237;-38
2023/03/21 02:27:39;;;;;;;8.17;6.23;;;;;;;12.90;43.14;99826.72;10490737;28;20218;-38
2023/03/21 02:32:47;;;;;;;10.07;6.90;;;;;;;13.78;41.77;99826.00;10474694;28;20231;-38
2023/03/21 02:37:57;;;;;;;13.20;7.30;;;;;;;12.31;43.14;99791.22;10455062;28;20212;-38
2023/03/21 02:43:30;;;;;;;8.70;7.57;;;;;;;12.86;43.31;99826.28;10479796;28;20314;-38
2023/03/21 02:48:42;;;;;;;11.53;7.17;;;;;;;11.09;46.74;99807.34;10469994;28;20220;-38
2023/03/21 02:54:01;;;;;;;11.80;8.50;;;;;;;11.61;46.59;99827.72;10472893;28;20231;-38
2023/03/21 02:59:25;;;;;;;11.13;8.57;;;;;;;12.04;44.74;99838.47;10471537;28;20658;-38
2023/03/21 03:04:27;;;;;;;10.67;8.63;;;;;;;12.87;43.79;99827.09;10469223;28;20771;-38
2023/03/21 03:09:42;;;;;;;11.53;9.47;;;;;;;14.11;42.62;99791.09;10473185;28;20211;-38
2023/03/21 03:14:56;;;;;;;10.17;9.13;;;;;;;13.99;42.42;99777.41;10484179;28;20223;-38
2023/03/21 03:20:19;;;;;;;11.33;8.87;;;;;;;11.78;44.64;99774.72;10480534;28;20211;-38
2023/03/21 03:25:35;;;;;;;9.50;7.93;;;;;;;11.55;45.69;99807.03;10476028;28;20617;-38
2023/03/21 03:30:46;;;;;;;9.60;7.97;;;;;;;10.55;48.00;99749.59;10464825;28;20294;-38
2023/03/21 03:36:12;;;;;;;10.77;9.20;;;;;;;9.94;49.33;99759.38;10479184;28;20211;-37
2023/03/21 03:41:35;;;;;;;10.53;8.50;;;;;;;12.00;46.41;99795.13;10479486;28;20226;-38
2023/03/21 03:47:05;;;;;;;10.37;7.93;;;;;;;10.02;50.06;99819.13;10471501;28;20223;-37
2023/03/21 03:52:20;;;;;;;10.47;8.47;;;;;;;9.47;50.91;99768.41;10466841;28;20222;-38
2023/03/21 03:57:25;;;;;;;12.13;8.37;;;;;;;11.15;47.49;99811.94;10483716;28;20218;-38
2023/03/21 04:02:28;;;;;;;10.10;8.03;;;;;;;11.18;47.68;99831.13;10464647;28;20235;-39
2023/03/21 04:07:30;;;;;;;9.23;8.13;;;;;;;12.52;45.32;99806.47;10462750;28;20244;-38
2023/03/21 04:12:32;;;;;;;9.80;8.73;;;;;;;12.38;46.06;99812.72;10474389;28;20231;-38
2023/03/21 04:17:34;;;;;;;9.30;7.77;;;;;;;12.37;44.88;99829.88;10489757;28;20624;-38
2023/03/21 04:22:36;;;;;;;10.50;9.10;;;;;;;12.74;44.53;99839.44;10481182;28;20240;-38
2023/03/21 04:27:38;;;;;;;11.70;7.93;;;;;;;11.74;45.71;99857.38;10479245;28;20200;-38
2023/03/21 04:32:41;;;;;;;9.70;7.70;;;;;;;11.74;46.28;99877.97;10483292;28;20233;-38
2023/03/21 04:37:43;;;;;;;11.00;8.47;;;;;;;10.61;47.45;99859.34;10477366;28;20208;-38
2023/03/21 04:42:48;;;;;;;10.17;8.30;;;;;;;12.77;43.75;99819.41;10473555;28;20231;-38
2023/03/21 04:47:49;;;;;;;14.53;8.53;;;;;;;12.87;44.19;99830.63;10487828;28;20206;-38
2023/03/21 04:52:51;;;;;;;10.90;9.43;;;;;;;10.52;46.73;99764.16;10476179;28;20652;-38
2023/03/21 04:57:53;;;;;;;10.63;8.90;;;;;;;12.25;45.53;99842.13;10485253;28;20620;-38
2023/03/21 05:02:56;;;;;;;10.27;8.63;;;;;;;11.53;45.03;99855.47;10490736;28;20242;-37
2023/03/21 05:07:59;;;;;;;9.23;7.23;;;;;;;12.22;45.05;99854.09;10477006;28;20205;-38
2023/03/21 05:13:01;;;;;;;9.93;7.63;;;;;;;11.66;45.87;99881.63;10485057;28;20230;-38
2023/03/21 05:18:10;;;;;;;7.93;6.97;;;;;;;10.91;47.13;99869.31;10474571;28;20210;-37
2023/03/21 05:23:12;;;;;;;7.80;6.87;;;;;;;11.25;46.48;99874.94;10479712;28;20232;-38
2023/03/21 05:28:16;;;;;;;7.93;7.13;;;;;;;11.91;44.85;99843.69;10477129;28;20208;-38
2023/03/21 05:33:18;;;;;;;7.50;6.70;;;;;;;11.82;45.42;99880.53;10482764;28;20226;-38
2023/03/21 05:38:20;;;;;;;8.80;7.07;;;;;;;11.97;44.68;99853.69;10475948;28;20219;-38
2023/03/21 05:43:22;;;;;;;9.80;6.73;;;;;;;9.81;48.27;99796.53;10475596;28;20600;-38
2023/03/21 05:48:24;;;;;;;9.57;7.30;;;;;;;9.71;49.50;99852.91;10473275;28;20215;-37
2023/03/21 05:53:26;;;;;;;11.10;7.43;;;;;;;10.09;48.96;99892.25;10487908;28;20235;-37
2023/03/21 05:58:28;;;;;;;9.27;6.63;;;;;;;9.26;50.78;99859.81;10476989;28;20205;-38
2023/03/21 06:03:30;;;;;;;7.30;6.50;;;;;;;11.36;47.62;99838.78;10481969;28;20238;-37
2023/03/21 06:08:32;;;;;;;11.00;9.63;;;;;;;11.22;46.38;99866.41;10481152;28;20564;-38
2023/03/21 06:13:34;;;;;;;13.43;9.97;;;;;;;12.71;43.74;99853.25;10473366;28;20914;-37
2023/03/21 06:18:36;;;;;;;10.70;9.60;;;;;;;12.44;44.41;99859.44;10477477;28;20204;-36
2023/03/21 06:23:38;;;;;;;9.33;6.93;;;;;;;11.33;45.64;99924.06;10464911;28;20700;-36
2023/03/21 06:28:40;;;;;;;10.97;8.10;;;;;;;11.74;45.10;99916.34;10479284;28;20203;-38
2023/03/21 06:33:41;;;;;;;9.30;7.30;;;;;;;12.05;45.15;99888.41;10472008;28;20231;-38
2023/03/21 06:38:43;;;;;;;10.53;8.60;;;;;;;10.31;47.80;99885.25;10472852;28;20206;-37
2023/03/21 06:43:45;;;;;;;9.57;7.80;;;;;;;12.13;45.08;99880.25;10470773;28;20228;-38
2023/03/21 06:48:47;;;;;;;10.47;8.27;;;;;;;12.76;44.79;99900.19;10481836;28;20324;-36
2023/03/21 06:53:48;;;;;;;11.17;7.53;;;;;;;10.07;48.11;99857.69;10480476;28;20228;-37
2023/03/21 06:58:50;;;;;;;9.67;7.77;;;;;;;10.63;46.96;99892.16;10481539;28;20216;-35
2023/03/21 07:03:57;;;;;;;9.13;7.97;;;;;;;12.41;45.33;99889.34;10473856;28;20274;-38
2023/03/21 07:08:59;;;;;;;9.57;8.10;;;;;;;11.25;46.86;99924.97;10472553;28;20211;-38
2023/03/21 07:14:01;;;;;;;9.10;8.20;;;;;;;10.03;49.28;99836.84;10458808;28;20233;-37
2023/03/21 07:19:02;;;;;;;11.70;8.13;;;;;;;11.88;46.57;99908.44;10491679;28;20219;-36
2023/03/21 07:24:04;;;;;;;7.67;6.80;;;;;;;11.17;48.07;99907.16;10476091;28;20241;-36
2023/03/21 07:29:06;;;;;;;7.37;6.50;;;;;;;11.57;48.35;99872.81;10480495;28;20592;-37
2023/03/21 07:34:08;;;;;;;7.77;6.50;;;;;;;11.57;47.34;99891.56;10486875;28;20211;-36
2023/03/21 07:39:10;;;;;;;6.30;5.70;;;;;;;12.21;46.50;99857.78;10473021;28;20674;-38
2023/03/21 07:44:11;;;;;;;6.07;5.40;;;;;;;11.47;47.87;99883.00;10483348;28;20224;-38
2023/03/21 07:49:14;;;;;;;7.83;5.13;;;;;;;12.79;45.65;99884.50;10478378;28;20207;-38
2023/03/21 07:54:18;;;;;;;5.70;5.20;;;;;;;12.63;44.80;99877.56;10476045;28;20470;-36
2023/03/21 07:59:19;;;;;;;5.47;4.97;;;;;;;13.49;44.74;99914.03;10486695;28;20818;-37
2023/03/21 08:04:21;;;;;;;6.37;5.73;;;;;;;12.98;45.06;99904.44;10488575;28;20327;-36
2023/03/21 08:09:23;;;;;;;5.13;4.70;;;;;;;13.12;44.82;99894.59;10489419;28;20207;-36
2023/03/21 08:14:25;;;;;;;6.33;4.87;;;;;;;11.57;46.71;99923.72;10486836;28;20234;-36
2023/03/21 08:19:26;;;;;;;6.13;5.53;;;;;;;13.90;44.28;99920.38;10483073;28;20218;-38
2023/03/21 08:24:29;;;;;;;7.07;5.23;;;;;;;13.21;44.99;99898.78;10487494;28;20237;-38
2023/03/21 08:29:30;;;;;;;8.97;4.90;;;;;;;13.34;44.98;99895.34;10486660;28;20214;-36
2023/03/21 08:34:32;;;;;;;6.83;5.33;;;;;;;13.65;44.82;99908.31;10483490;28;20218;-38
2023/03/21 08:39:34;;;;;;;5.63;5.03;;;;;;;12.40;45.93;99920.72;10484658;28;20374;-36
2023/03/21 08:44:37;;;;;;;6.93;4.70;;;;;;;12.74;45.03;99901.19;10487462;28;20776;-38
2023/03/21 08:49:40;;;;;;;6.00;5.20;;;;;;;14.13;43.84;99923.53;10483725;28;20214;-37
2023/03/21 08:54:44;;;;;;;6.77;5.37;;;;;;;14.32;43.21;99911.13;10486714;28;20704;-37
2023/03/21 08:59:45;;;;;;;6.57;4.83;;;;;;;12.77;45.02;99909.88;10477579;28;20593;-37
2023/03/21 09:04:47;;;;;;;7.63;5.13;;;;;;;14.17;43.64;99897.06;10442938;28;20248;-38
2023/03/21 09:09:51;;;;;;;7.03;5.70;;;;;;;13.56;44.24;99901.44;10451148;28;20723;-37
2023/03/21 09:15:13;;;;;;;7.90;5.20;;;;;;;13.39;44.65;99871.38;10452196;28;20207;-38
2023/03/21 09:20:17;;;;;;;6.63;5.57;;;;;;;15.59;42.06;99921.75;10437152;28;20304;-38
2023/03/21 09:25:20;;;;;;;6.73;5.50;;;;;;;15.97;41.44;99912.81;10446599;28;20717;-38
2023/03/21 09:30:22;;;;;;;6.30;5.70;;;;;;;13.93;44.82;99864.28;10443385;28;20286;-38
2023/03/21 09:35:27;;;;;;;7.27;5.87;;;;;;;15.98;42.09;99897.47;10437459;28;20215;-38
2023/03/21 09:40:49;;;;;;;7.00;5.97;;;;;;;15.85;41.60;99866.00;10449712;28;20224;-37
2023/03/21 09:45:57;;;;;;;8.00;5.97;;;;;;;16.17;41.32;99852.47;10435045;28;20322;-38
2023/03/21 09:50:59;;;;;;;6.20;5.60;;;;;;;14.70;42.88;99807.34;10442223;28;20235;-38
2023/03/21 09:56:04;;;;;;;8.10;6.20;;;;;;;16.06;41.35;99857.53;10441392;28;20205;-38
2023/03/21 10:01:20;;;;;;;7.80;5.80;;;;;;;14.34;43.69;99828.34;10445206;28;20242;-38
2023/03/21 10:06:28;;;;;;;6.87;5.43;;;;;;;15.62;41.90;99805.34;10483024;28;20861;-38
2023/03/21 10:11:41;;;;;;;6.30;5.33;;;;;;;14.21;44.19;99856.06;10487163;28;20231;-38
2023/03/21 10:16:45;;;;;;;5.87;4.90;;;;;;;13.82;44.94;99846.91;10481710;28;20604;-38
2023/03/21 10:21:49;;;;;;;5.97;4.57;;;;;;;12.87;45.24;99790.34;10487074;28;20249;-38
2023/03/21 10:27:06;;;;;;;6.97;4.63;;;;;;;12.68;46.08;99824.09;10477523;28;20226;-38
2023/03/21 10:32:12;;;;;;;5.40;4.73;;;;;;;15.06;43.20;99782.59;10483804;28;20230;-37
2023/03/21 10:37:15;;;;;;;7.53;4.87;;;;;;;14.18;43.01;99774.94;10474603;28;20664;-37
2023/03/21 10:42:23;;;;;;;7.30;5.10;;;;;;;16.35;41.16;99797.75;10471029;28;20239;-38
2023/03/21 10:47:29;;;;;;;7.83;5.90;;;;;;;16.00;41.62;99776.63;10470595;28;20231;-38
2023/03/21 10:52:33;;;;;;;7.60;5.37;;;;;;;15.51;43.23;99777.16;10475237;28;20262;-38
2023/03/21 10:57:36;;;;;;;6.23;5.40;;;;;;;14.99;42.82;99780.97;10451866;28;20739;-38
2023/03/21 11:06:35;;;;;;;6.20;4.80;;;;;;;11.47;48.30;99864.25;10472467;28;20814;-72
2023/03/21 11:11:39;;;;;;;7.37;5.30;;;;;;;12.82;46.61;99810.75;10432965;28;20542;-73
2023/03/21 11:16:42;;;;;;;7.23;5.57;;;;;;;12.97;45.75;99787.28;10427360;28;20366;-73
2023/03/21 11:21:45;;;;;;;4.80;4.27;;;;;;;13.13;46.45;99794.19;10434931;28;20207;-73
2023/03/21 11:26:49;;;;;;;5.60;5.10;;;;;;;12.55;45.91;99797.19;10438027;28;20658;-69
2023/03/21 11:31:51;;;;;;;5.63;5.00;;;;;;;13.34;44.66;99770.91;10433412;28;20227;-73
2023/03/21 11:36:58;;;;;;;6.07;4.60;;;;;;;14.56;43.56;99788.53;10441042;28;20208;-72
2023/03/21 11:42:00;;;;;;;5.50;4.50;;;;;;;13.55;44.87;99754.63;10438032;28;20270;-72
2023/03/21 11:47:02;;;;;;;5.70;5.20;;;;;;;14.73;42.92;99767.34;10438556;28;20204;-72
2023/03/21 11:52:31;;;;;;;5.63;4.70;;;;;;;16.07;41.24;99785.50;10431636;28;20205;-69
2023/03/21 11:57:45;;;;;;;5.87;4.47;;;;;;;12.91;44.01;99775.47;10429144;28;20309;-72
2023/03/21 12:08:19;;;;;;;4.23;3.83;;;;;;;14.16;43.22;99753.59;10261270;28;20282;-39
2023/03/21 12:13:45;;;;;;;5.27;4.23;;;;;;;13.87;42.76;99736.03;10262747;28;20215;-39
2023/03/21 12:18:59;;;;;;;5.90;3.67;;;;;;;14.47;42.41;99724.34;10327765;23;20247;-37
2023/03/21 12:24:23;;;;;;;14.00;4.20;;;;;;;15.43;41.08;99723.47;10395571;28;20235;-38
2023/03/21 12:29:25;;;;;;;8.17;3.80;;;;;;;14.94;41.18;99703.47;10356547;28;20762;-37
2023/03/21 12:34:33;;;;;;;3.57;3.00;;;;;;;15.51;40.39;99679.25;10362477;28;20209;-38
2023/03/21 12:39:39;;;;;;;4.57;3.80;;;;;;;14.32;41.04;99684.22;10368536;28;20332;-37
2023/03/21 12:44:46;;;;;;;4.70;3.13;;;;;;;15.61;40.43;99673.41;10356921;28;20233;-38
2023/03/21 12:50:11;;;;;;;4.83;3.23;;;;;;;14.42;40.98;99689.16;10354984;28;20418;-37
2023/03/21 12:55:26;;;;;;;4.30;3.53;;;;;;;16.41;38.86;99681.53;10356483;28;20671;-38
2023/03/21 13:00:31;;;;;;;3.63;3.00;;;;;;;16.81;38.40;99645.09;10353734;28;20260;-38
2023/03/21 13:05:34;;;;;;;3.40;3.10;;;;;;;16.38;38.43;99632.56;10351934;28;20236;-38
2023/03/21 13:10:38;;;;;;;5.07;3.30;;;;;;;16.83;37.62;99624.06;10357841;28;20241;-38
2023/03/21 13:15:58;;;;;;;4.50;2.80;;;;;;;16.82;37.70;99627.84;10357906;28;20567;-38
2023/03/21 13:21:12;;;;;;;3.23;2.93;;;;;;;16.46;39.25;99610.66;10354115;28;20240;-39
2023/03/21 13:26:14;;;;;;;5.67;3.57;;;;;;;16.46;37.32;99570.13;10357650;28;20240;-37
2023/03/21 13:31:24;;;;;;;3.80;3.10;;;;;;;18.24;35.02;99590.06;10357965;28;20490;-37
2023/03/21 13:36:30;;;;;;;5.03;3.60;;;;;;;17.24;37.67;99517.00;10362602;28;20877;-38
2023/03/21 13:41:37;;;;;;;5.10;3.67;;;;;;;15.56;37.91;99536.53;10359184;28;20272;-38
2023/03/21 13:46:44;;;;;;;4.57;3.67;;;;;;;16.53;38.71;99549.25;10356484;28;20651;-38
2023/03/21 13:51:57;;;;;;;6.67;3.93;;;;;;;17.95;37.15;99524.19;10351837;28;20304;-38
2023/03/21 13:57:04;;;;;;;6.50;3.90;;;;;;;15.55;39.27;99555.63;10359812;28;20275;-38
2023/03/21 14:02:17;;;;;;;4.13;3.70;;;;;;;14.77;40.21;99530.72;10358635;28;20228;-38
2023/03/21 14:07:25;;;;;;;6.80;3.60;;;;;;;16.24;38.97;99499.59;10354696;28;20605;-38
2023/03/21 14:12:33;;;;;;;8.10;4.60;;;;;;;15.99;39.13;99505.94;10350496;28;21067;-38
2023/03/21 14:17:35;;;;;;;5.47;3.60;;;;;;;15.43;40.61;99520.44;10358309;28;20260;-38
2023/03/21 14:22:40;;;;;;;4.60;3.67;;;;;;;15.11;40.28;99518.66;10354365;28;20256;-37
2023/03/21 14:27:46;;;;;;;5.17;3.30;;;;;;;15.56;39.00;99493.38;10352377;28;20670;-38
2023/03/21 14:32:48;;;;;;;7.33;3.10;;;;;;;15.60;38.94;99480.25;10354312;28;20209;-38
2023/03/21 14:37:50;;;;;;;4.67;3.47;;;;;;;14.67;40.32;99498.06;10361881;28;20233;-37
2023/03/21 14:42:53;;;;;;;4.33;3.30;;;;;;;14.84;38.92;99509.97;10355057;28;20221;-38
2023/03/21 14:48:05;;;;;;;4.57;3.23;;;;;;;16.24;38.60;99483.38;10355844;28;20233;-38
2023/03/21 14:53:31;;;;;;;3.97;3.10;;;;;;;16.65;37.98;99459.34;10358140;28;20664;-38
2023/03/21 14:58:37;;;;;;;3.67;3.17;;;;;;;15.40;39.89;99500.13;10352648;28;20230;-38
2023/03/21 15:03:42;;;;;;;3.23;2.90;;;;;;;16.07;39.27;99483.22;10358141;28;20225;-37
2023/03/21 15:09:02;;;;;;;4.47;3.40;;;;;;;14.50;40.51;99452.00;10355687;28;20225;-38
2023/03/21 15:14:12;;;;;;;6.73;3.73;;;;;;;16.21;39.44;99462.25;10355726;28;20679;-37
2023/03/21 15:19:18;;;;;;;6.50;4.83;;;;;;;16.64;38.91;99455.81;10358803;28;20251;-38
2023/03/21 15:24:29;;;;;;;6.37;3.60;;;;;;;17.36;37.30;99393.41;10348284;28;20784;-38
2023/03/21 15:29:33;;;;;;;3.93;2.97;;;;;;;15.66;39.05;99458.63;10351262;28;20231;-38
2023/03/21 15:34:35;;;;;;;9.47;2.97;;;;;;;14.80;40.61;99437.91;10355515;28;20217;-37
2023/03/21 15:39:37;;;;;;;2.97;2.67;;;;;;;15.00;42.67;99429.66;10347627;28;20236;-38
2023/03/21 15:44:48;;;;;;;5.07;3.40;;;;;;;15.67;41.65;99398.25;10352412;28;20313;-38
2023/03/21 15:49:54;;;;;;;5.63;3.43;;;;;;;14.48;43.74;99402.97;10360671;28;20252;-38
2023/03/21 15:54:58;;;;;;;5.50;3.50;;;;;;;17.05;40.43;99377.59;10360039;28;20209;-39
2023/03/21 16:00:11;;;;;;;9.47;8.00;;;;;;;17.08;40.26;99383.34;10358392;28;20325;-38
2023/03/21 16:05:25;;;;;;;5.53;3.90;;;;;;;14.91;41.60;99397.63;10368205;28;20243;-39
2023/03/21 16:10:31;;;;;;;7.47;4.00;;;;;;;16.98;40.87;99373.13;10362522;28;20229;-40
2023/03/21 16:15:33;;;;;;;4.97;3.90;;;;;;;15.06;43.22;99426.88;10368285;28;20295;-40
2023/03/21 16:20:39;;;;;;;5.90;4.30;;;;;;;14.94;42.98;99424.09;10365290;28;20730;-38
2023/03/21 16:25:42;;;;;;;6.70;4.23;;;;;;;14.02;44.40;99386.91;10359891;28;20276;-40
2023/03/21 16:30:44;;;;;;;5.77;4.17;;;;;;;14.92;43.30;99420.81;10364028;28;20327;-38
2023/03/21 16:35:46;;;;;;;5.70;4.27;;;;;;;15.07;43.08;99414.25;10357724;28;20241;-37
2023/03/21 16:40:50;;;;;;;4.87;3.90;;;;;;;14.60;43.97;99406.56;10352533;28;20707;-38
2023/03/21 16:45:51;;;;;;;5.60;4.23;;;;;;;15.81;42.29;99381.88;10356326;28;20236;-38
2023/03/21 16:50:53;;;;;;;12.53;8.93;;;;;;;16.36;41.22;99351.16;10356213;28;20287;-38
2023/03/21 16:56:01;;;;;;;9.10;6.27;;;;;;;16.78;40.85;99362.66;10349269;28;20903;-38
2023/03/21 17:01:03;;;;;;;7.83;7.03;;;;;;;17.26;39.81;99340.97;10363729;28;20267;-38
2023/03/21 17:06:05;;;;;;;9.50;5.67;;;;;;;16.18;41.37;99392.50;10363475;28;20769;-39
2023/03/21 17:11:11;;;;;;;12.30;8.00;;;;;;;16.31;41.63;99389.66;10352871;28;20233;-38
2023/03/21 17:16:18;;;;;;;8.73;7.30;;;;;;;17.38;40.80;99357.19;10355577;28;20209;-39
2023/03/21 17:21:22;;;;;;;9.57;7.10;;;;;;;17.05;41.22;99364.09;10359913;28;20333;-39
2023/03/21 17:26:27;;;;;;;9.17;6.47;;;;;;;17.97;40.19;99386.75;10350374;28;20241;-38
2023/03/21 17:31:35;;;;;;;5.70;5.20;;;;;;;17.57;40.98;99380.28;10360675;28;20202;-38
2023/03/21 17:36:40;;;;;;;8.63;5.70;;;;;;;15.19;43.08;99373.91;10365695;28;20205;-38
2023/03/21 17:41:42;;;;;;;8.00;5.30;;;;;;;15.40;43.33;99421.94;10357921;28;20213;-38
2023/03/21 17:46:45;;;;;;;7.80;5.37;;;;;;;15.84;42.56;99395.72;10349778;28;20713;-38
2023/03/21 17:51:47;;;;;;;8.10;5.90;;;;;;;17.67;40.52;99363.47;10360607;28;20217;-38
2023/03/21 17:56:48;;;;;;;13.30;10.33;;;;;;;15.64;42.45;99404.09;10356914;28;20222;-39
2023/03/21 18:01:50;;;;;;;6.50;4.90;;;;;;;15.78;42.86;99441.66;10361608;28;20209;-38
2023/03/21 18:06:55;;;;;;;8.63;5.80;;;;;;;15.85;42.26;99401.94;10364822;28;20237;-38
2023/03/21 18:11:57;;;;;;;14.97;9.97;;;;;;;16.39;41.64;99386.59;10354207;28;20199;-38
2023/03/21 18:16:59;;;;;;;10.67;7.30;;;;;;;15.78;42.51;99428.19;10364719;23;20244;-69
2023/03/21 18:22:02;;;;;;;7.13;5.30;;;;;;;15.66;43.13;99428.94;10387740;28;20221;-67
2023/03/21 18:27:05;;;;;;;7.00;4.97;;;;;;;15.04;43.44;99445.16;10360048;28;20233;-67
2023/03/21 18:32:07;;;;;;;6.40;5.30;;;;;;;14.04;44.44;99435.91;10348760;28;20657;-68
2023/03/21 18:37:09;;;;;;;8.13;5.83;;;;;;;15.24;43.04;99423.38;10349525;28;20256;-67
2023/03/21 18:42:13;;;;;;;6.37;5.67;;;;;;;13.90;45.13;99434.34;10345761;28;20678;-68
2023/03/21 18:47:23;;;;;;;6.73;5.37;;;;;;;14.48;44.49;99467.56;10347690;28;20237;-68
2023/03/21 18:52:25;;;;;;;6.17;5.40;;;;;;;14.52;44.39;99466.91;10345578;28;20646;-68
2023/03/21 18:57:27;;;;;;;8.07;5.63;;;;;;;14.07;45.07;99458.06;10341869;28;20236;-67
2023/03/21 19:02:44;;;;;;;8.30;6.47;;;;;;;16.14;42.32;99418.34;10347517;28;20206;-67
2023/03/21 19:07:50;;;;;;;10.13;8.03;;;;;;;16.51;41.64;99408.22;10345008;28;20230;-69
2023/03/21 19:12:53;;;;;;;12.53;9.93;;;;;;;14.34;44.86;99458.75;10346345;28;20209;-68
2023/03/21 19:17:55;;;;;;;12.90;9.30;;;;;;;17.04;40.88;99413.78;10340127;28;20257;-71
2023/03/21 19:23:16;;;;;;;8.43;6.63;;;;;;;15.41;41.88;99453.28;10350196;28;20221;-72
2023/03/21 19:28:19;;;;;;;8.63;6.57;;;;;;;17.01;40.83;99423.19;10353593;28;20316;-71
2023/03/21 19:33:21;;;;;;;7.70;6.17;;;;;;;16.55;41.18;99443.69;10359462;28;20213;-70
2023/03/21 19:38:23;;;;;;;9.77;7.70;;;;;;;16.59;41.24;99402.47;10355524;28;20216;-69
2023/03/21 19:43:24;;;;;;;9.30;7.70;;;;;;;13.94;44.70;99465.16;10348946;28;20221;-69
2023/03/21 19:48:33;;;;;;;10.60;6.43;;;;;;;13.78;44.61;99497.91;10351142;28;20585;-66
2023/03/21 19:53:38;;;;;;;8.43;6.10;;;;;;;15.07;43.61;99489.72;10353735;28;21052;-72
2023/03/21 19:58:40;;;;;;;7.77;6.10;;;;;;;13.31;45.57;99471.16;10347859;28;20205;-65
2023/03/21 20:03:46;;;;;;;9.93;6.67;;;;;;;14.35;43.85;99496.19;10357336;28;20236;-75
2023/03/21 20:08:48;;;;;;;8.17;6.20;;;;;;;15.29;42.86;99458.59;10350078;28;20213;-71
2023/03/21 20:14:09;;;;;;;9.20;7.90;;;;;;;15.48;42.33;99435.13;10353421;28;20682;-72
2023/03/21 20:19:13;;;;;;;10.27;7.53;;;;;;;15.31;42.63;99485.31;10346501;28;20742;-72
2023/03/21 20:24:15;;;;;;;8.10;6.87;;;;;;;15.58;42.57;99474.28;10352006;28;20616;-73
2023/03/21 20:29:17;;;;;;;8.07;7.20;;;;;;;15.81;41.58;99427.72;10355326;28;20695;-68
2023/03/21 20:34:39;;;;;;;10.17;8.53;;;;;;;16.46;40.62;99432.41;10350610;28;20221;-72
2023/03/21 20:39:41;;;;;;;9.80;8.07;;;;;;;15.72;42.32;99505.41;10354080;28;20301;-72
2023/03/21 20:44:43;;;;;;;11.23;7.63;;;;;;;15.73;42.21;99484.69;10349281;28;20237;-70
2023/03/21 20:49:59;;;;;;;8.83;7.17;;;;;;;15.44;42.91;99487.88;10348932;28;20626;-71
2023/03/21 20:55:01;;;;;;;8.70;7.30;;;;;;;15.04;43.64;99501.75;10348006;28;20222;-72
2023/03/21 21:00:07;;;;;;;8.83;7.70;;;;;;;14.33;44.05;99503.69;10348642;28;20219;-71
2023/03/21 21:05:11;;;;;;;8.43;6.30;;;;;;;14.14;44.59;99513.53;10350815;28;20244;-70
2023/03/21 21:10:28;;;;;;;9.00;6.90;;;;;;;14.70;44.11;99511.13;10349195;28;20746;-74
2023/03/21 21:15:32;;;;;;;7.53;6.10;;;;;;;15.02;43.02;99493.06;10354485;28;20233;-65
2023/03/21 21:20:35;;;;;;;8.93;7.40;;;;;;;15.84;41.91;99471.25;10355628;28;20237;-68
2023/03/21 21:25:37;;;;;;;10.47;7.90;;;;;;;15.17;42.51;99524.22;10349863;28;20260;-68
2023/03/21 21:30:39;;;;;;;14.90;10.60;;;;;;;15.55;41.81;99472.03;10352012;28;20213;-69
2023/03/21 21:35:46;;;;;;;9.00;7.10;;;;;;;14.77;43.32;99518.09;10340697;28;20348;-68
2023/03/21 21:40:52;;;;;;;11.17;6.53;;;;;;;12.70;46.63;99450.75;10349352;28;20216;-69
2023/03/21 21:45:53;;;;;;;8.53;7.23;;;;;;;15.05;42.93;99464.81;10343438;28;20237;-68
2023/03/21 21:50:55;;;;;;;8.63;7.00;;;;;;;14.63;43.26;99500.38;10350605;28;20209;-69
2023/03/21 21:55:57;;;;;;;9.37;7.27;;;;;;;15.22;43.00;99500.13;10348232;28;20229;-68
2023/03/21 22:01:00;;;;;;;8.50;6.03;;;;;;;15.24;42.08;99450.34;10346364;28;20225;-68
2023/03/21 22:06:03;;;;;;;11.77;8.10;;;;;;;15.04;43.24;99533.25;10350104;28;20234;-67
2023/03/21 22:11:05;;;;;;;8.77;6.53;;;;;;;14.90;43.49;99517.19;10344407;28;20681;-68
2023/03/21 22:16:07;;;;;;;8.93;6.93;;;;;;;15.56;42.39;99495.25;10350684;28;20328;-67
2023/03/21 22:21:09;;;;;;;14.37;9.50;;;;;;;13.27;45.29;99462.66;10347748;28;20547;-67
2023/03/21 22:26:10;;;;;;;9.93;7.50;;;;;;;14.77;42.98;99501.91;10348075;28;20232;-66
2023/03/21 22:31:14;;;;;;;14.80;8.73;;;;;;;15.17;42.77;99470.31;10346812;28;20209;-66
2023/03/21 22:36:16;;;;;;;12.40;9.20;;;;;;;14.98;43.11;99509.88;10343380;28;20609;-68
2023/03/21 22:41:18;;;;;;;15.17;8.67;;;;;;;15.87;41.68;99500.47;10348144;28;20882;-66
2023/03/21 22:46:19;;;;;;;14.03;8.80;;;;;;;15.48;42.32;99493.63;10345394;28;20709;-69
2023/03/21 22:51:21;;;;;;;15.10;11.23;;;;;;;13.08;45.59;99450.09;10345188;28;20210;-68
2023/03/21 22:56:23;;;;;;;12.03;10.03;;;;;;;11.54;48.70;99406.09;10343851;28;20555;-68
2023/03/21 23:01:25;;;;;;;10.70;8.23;;;;;;;13.43;45.88;99520.56;10345620;28;20639;-68
2023/03/21 23:06:26;;;;;;;7.60;6.20;;;;;;;14.77;42.97;99485.75;10346376;28;20691;-68
2023/03/21 23:11:28;;;;;;;7.40;5.90;;;;;;;14.33;43.83;99521.69;10353567;28;20217;-68
2023/03/21 23:16:30;;;;;;;8.30;5.50;;;;;;;14.40;43.73;99534.06;10351285;28;20233;-66
2023/03/21 23:21:32;;;;;;;8.27;6.63;;;;;;;14.59;43.56;99520.69;10345928;28;20238;-68
2023/03/21 23:26:35;;;;;;;8.03;6.00;;;;;;;15.18;42.50;99494.34;10346082;28;20235;-66
2023/03/21 23:31:36;;;;;;;10.50;7.67;;;;;;;13.00;44.42;99502.16;10347299;28;20205;-68
2023/03/21 23:36:38;;;;;;;9.27;6.83;;;;;;;13.28;45.11;99533.41;10347087;28;20320;-68
2023/03/21 23:41:41;;;;;;;11.20;8.17;;;;;;;12.37;46.24;99503.31;10342836;28;20209;-68
2023/03/21 23:46:43;;;;;;;14.70;8.60;;;;;;;11.47;49.28;99505.19;10346032;28;20236;-68
2023/03/21 23:51:45;;;;;;;12.50;7.47;;;;;;;10.65;49.81;99435.19;10349960;28;20220;-68